Time;durP1;ratioP1;P1;durP2;ratioP2;P2;SDS_P1;SDS_P2;PMS_P1;PMS_P2;Temp;Humidity;BMP_temperature;BMP_pressure;BME280_temperature;BME280_humidity;BME280_pressure;Samples;Min_cycle;Max_cycle;Signal;HPM_P1;HPM_P2
2024/01/16 00:00:57;;;;;;;0.10;0.10;;;;;;;;;;5071516;28;20123;-86
2024/01/16 00:03:23;;;;;;;0.10;0.10;;;;;;;;;;5055108;28;20043;-86
2024/01/16 00:05:49;;;;;;;0.10;0.10;;;;;;;;;;5055065;28;20041;-85
2024/01/16 00:08:15;;;;;;;0.10;0.10;;;;;;;;;;5071525;28;20036;-85
2024/01/16 00:10:42;;;;;;;0.10;0.10;;;;;;;;;;5071398;28;20044;-86
2024/01/16 00:13:07;;;;;;;0.10;0.10;;;;;;;;;;5054955;28;20507;-86
2024/01/16 00:15:33;;;;;;;0.10;0.10;;;;;;;;;;5071385;28;20072;-86
2024/01/16 00:17:59;;;;;;;0.10;0.10;;;;;;;;;;5071586;28;20048;-86
2024/01/16 00:20:26;;;;;;;0.10;0.10;;;;;;;;;;5054625;28;20040;-86
2024/01/16 00:22:52;;;;;;;0.10;0.10;;;;;;;;;;5071329;28;20050;-86
2024/01/16 00:25:19;;;;;;;0.10;0.10;;;;;;;;;;5071255;28;20491;-86
2024/01/16 00:27:46;;;;;;;0.10;0.10;;;;;;;;;;5071421;28;20037;-86
2024/01/16 00:30:12;;;;;;;0.10;0.10;;;;;;;;;;5071025;28;20040;-86
2024/01/16 00:32:39;;;;;;;0.10;0.10;;;;;;;;;;5054968;28;20463;-85
2024/01/16 00:35:05;;;;;;;0.10;0.10;;;;;;;;;;5071065;28;20044;-86
2024/01/16 00:37:31;;;;;;;0.10;0.10;;;;;;;;;;5071061;28;20066;-87
2024/01/16 00:39:57;;;;;;;0.10;0.10;;;;;;;;;;5070781;28;20048;-86
2024/01/16 00:42:23;;;;;;;0.10;0.10;;;;;;;;;;5053608;28;20450;-87
2024/01/16 00:44:49;;;;;;;0.10;0.10;;;;;;;;;;5054459;28;20119;-87
2024/01/16 00:47:15;;;;;;;0.10;0.10;;;;;;;;;;5070950;28;20486;-86
2024/01/16 00:49:41;;;;;;;0.10;0.10;;;;;;;;;;5070882;28;20060;-87
2024/01/16 00:52:07;;;;;;;0.10;0.10;;;;;;;;;;5054382;28;20558;-85
2024/01/16 00:54:33;;;;;;;0.10;0.10;;;;;;;;;;5070880;28;20044;-85
2024/01/16 00:56:59;;;;;;;0.10;0.10;;;;;;;;;;5054544;28;20048;-85
2024/01/16 00:59:28;;;;;;;0.10;0.10;;;;;;;;;;5054271;28;20503;-86
2024/01/16 01:01:54;;;;;;;0.10;0.10;;;;;;;;;;5070645;28;20101;-85
2024/01/16 01:04:20;;;;;;;0.10;0.10;;;;;;;;;;5070794;28;20036;-85
2024/01/16 01:06:46;;;;;;;0.20;0.20;;;;;;;;;;5070719;28;20039;-85
2024/01/16 01:09:12;;;;;;;0.10;0.10;;;;;;;;;;5054187;28;20047;-85
2024/01/16 01:11:39;;;;;;;0.10;0.10;;;;;;;;;;5070598;28;20071;-85
2024/01/16 01:14:05;;;;;;;0.20;0.20;;;;;;;;;;5070734;28;20432;-85
2024/01/16 01:16:31;;;;;;;0.10;0.10;;;;;;;;;;5070699;28;20036;-86
2024/01/16 01:18:57;;;;;;;0.10;0.10;;;;;;;;;;5070632;28;20040;-85
2024/01/16 01:21:23;;;;;;;0.10;0.10;;;;;;;;;;5053517;28;20064;-85
2024/01/16 01:23:49;;;;;;;0.10;0.10;;;;;;;;;;5053871;28;20368;-85
2024/01/16 01:26:17;;;;;;;0.10;0.10;;;;;;;;;;5054018;28;20039;-85
2024/01/16 01:28:43;;;;;;;0.10;0.10;;;;;;;;;;5070657;28;20529;-86
2024/01/16 01:31:10;;;;;;;0.10;0.10;;;;;;;;;;5053945;28;20048;-85
2024/01/16 01:33:36;;;;;;;0.10;0.10;;;;;;;;;;5070542;28;20146;-86
2024/01/16 01:36:02;;;;;;;0.10;0.10;;;;;;;;;;5054028;28;20175;-86
2024/01/16 01:38:28;;;;;;;0.68;0.68;;;;;;;;;;5070541;28;20044;-86
2024/01/16 01:40:54;;;;;;;0.10;0.10;;;;;;;;;;5053760;28;20382;-87
2024/01/16 01:43:20;;;;;;;0.10;0.10;;;;;;;;;;5053848;28;20037;-86
2024/01/16 01:45:48;;;;;;;0.10;0.10;;;;;;;;;;5070495;28;20047;-86
2024/01/16 01:48:14;;;;;;;0.10;0.10;;;;;;;;;;5053693;28;20059;-86
2024/01/16 01:50:40;;;;;;;0.10;0.10;;;;;;;;;;5053741;28;20048;-85
2024/01/16 01:53:06;;;;;;;0.10;0.10;;;;;;;;;;5055772;28;20032;-86
2024/01/16 01:55:32;;;;;;;0.10;0.10;;;;;;;;;;5057635;28;20048;-86
2024/01/16 01:57:58;;;;;;;0.10;0.10;;;;;;;;;;5057569;28;20507;-85
2024/01/16 02:00:24;;;;;;;0.10;0.10;;;;;;;;;;5057288;28;20492;-86
2024/01/16 02:02:50;;;;;;;0.10;0.10;;;;;;;;;;5074057;28;20085;-85
2024/01/16 02:05:16;;;;;;;0.10;0.10;;;;;;;;;;5057497;28;20040;-85
2024/01/16 02:07:42;;;;;;;0.10;0.10;;;;;;;;;;5075200;28;20040;-86
2024/01/16 02:10:08;;;;;;;0.10;0.10;;;;;;;;;;5057183;28;20040;-86
2024/01/16 02:12:34;;;;;;;0.10;0.10;;;;;;;;;;5057245;28;20040;-86
2024/01/16 02:15:00;;;;;;;0.10;0.10;;;;;;;;;;5073514;28;20044;-86
2024/01/16 02:17:26;;;;;;;0.10;0.10;;;;;;;;;;5073718;28;20051;-86
2024/01/16 02:19:52;;;;;;;0.10;0.10;;;;;;;;;;5073797;28;20127;-85
2024/01/16 02:22:21;;;;;;;0.10;0.10;;;;;;;;;;5073467;28;20145;-85
2024/01/16 02:24:47;;;;;;;0.10;0.10;;;;;;;;;;5057583;28;20048;-86
2024/01/16 02:27:14;;;;;;;0.10;0.10;;;;;;;;;;5057080;28;20040;-86
2024/01/16 02:29:43;;;;;;;0.10;0.10;;;;;;;;;;5073510;28;20142;-86
2024/01/16 02:32:10;;;;;;;0.10;0.10;;;;;;;;;;5073380;28;20071;-86
2024/01/16 02:34:36;;;;;;;0.10;0.10;;;;;;;;;;5056778;28;20040;-88
2024/01/16 02:37:02;;;;;;;0.10;0.10;;;;;;;;;;5056875;28;20377;-86
2024/01/16 02:39:28;;;;;;;0.20;0.20;;;;;;;;;;5056701;28;20048;-86
2024/01/16 02:41:54;;;;;;;0.15;0.15;;;;;;;;;;5073164;28;20044;-87
2024/01/16 02:44:20;;;;;;;0.10;0.10;;;;;;;;;;5073271;28;20040;-87
2024/01/16 02:46:46;;;;;;;0.10;0.10;;;;;;;;;;5073699;28;20044;-85
2024/01/16 02:49:12;;;;;;;0.10;0.10;;;;;;;;;;5056316;28;20492;-85
2024/01/16 02:51:38;;;;;;;1.25;0.47;;;;;;;;;;5073035;28;20052;-86
2024/01/16 02:54:05;;;;;;;0.10;0.10;;;;;;;;;;5056437;28;20053;-85
2024/01/16 02:56:31;;;;;;;0.10;0.10;;;;;;;;;;5056444;28;20511;-86
2024/01/16 02:58:57;;;;;;;0.10;0.10;;;;;;;;;;5072944;28;20044;-85
2024/01/16 03:01:23;;;;;;;0.10;0.10;;;;;;;;;;5056260;28;20040;-85
2024/01/16 03:03:49;;;;;;;0.10;0.10;;;;;;;;;;5072107;28;20055;-86
2024/01/16 03:06:25;;;;;;;0.10;0.10;;;;;;;;;;5056319;28;20124;-86
2024/01/16 03:08:51;;;;;;;0.10;0.10;;;;;;;;;;5056184;28;20564;-86
2024/01/16 03:11:17;;;;;;;0.10;0.10;;;;;;;;;;5056545;28;20384;-86
2024/01/16 03:13:43;;;;;;;0.10;0.10;;;;;;;;;;5072659;28;20047;-86
2024/01/16 03:16:12;;;;;;;0.10;0.10;;;;;;;;;;5072876;28;20071;-85
2024/01/16 03:18:38;;;;;;;0.10;0.10;;;;;;;;;;5055983;28;20487;-86
2024/01/16 03:21:07;;;;;;;0.10;0.10;;;;;;;;;;5073658;28;20049;-87
2024/01/16 03:23:33;;;;;;;0.10;0.10;;;;;;;;;;5055926;28;20131;-86
2024/01/16 03:25:59;;;;;;;0.10;0.10;;;;;;;;;;5072334;28;20072;-85
2024/01/16 03:28:25;;;;;;;0.10;0.10;;;;;;;;;;5072598;28;20139;-86
2024/01/16 03:30:51;;;;;;;0.10;0.10;;;;;;;;;;5072183;28;20047;-86
2024/01/16 03:33:17;;;;;;;0.10;0.10;;;;;;;;;;5055855;28;20083;-86
2024/01/16 03:35:43;;;;;;;0.10;0.10;;;;;;;;;;5072171;28;20043;-85
2024/01/16 03:38:09;;;;;;;0.10;0.10;;;;;;;;;;5055466;28;20458;-85
2024/01/16 03:40:35;;;;;;;0.10;0.10;;;;;;;;;;5055286;28;20123;-85
2024/01/16 03:43:02;;;;;;;0.10;0.10;;;;;;;;;;5055412;28;20120;-86
2024/01/16 03:45:28;;;;;;;0.10;0.10;;;;;;;;;;5071803;28;20491;-86
2024/01/16 03:47:54;;;;;;;0.10;0.10;;;;;;;;;;5071818;28;20094;-86
2024/01/16 03:50:20;;;;;;;0.10;0.10;;;;;;;;;;5055424;28;20337;-86
2024/01/16 03:52:46;;;;;;;0.10;0.10;;;;;;;;;;5071904;28;20092;-85
2024/01/16 03:55:12;;;;;;;0.10;0.10;;;;;;;;;;5071895;28;20056;-85
2024/01/16 03:57:38;;;;;;;0.10;0.10;;;;;;;;;;5071961;28;20569;-85
2024/01/16 04:00:05;;;;;;;0.10;0.10;;;;;;;;;;5071591;28;20044;-85
2024/01/16 04:02:31;;;;;;;0.10;0.10;;;;;;;;;;5073063;28;20392;-85
2024/01/16 04:04:57;;;;;;;0.10;0.10;;;;;;;;;;5055206;28;20075;-85
2024/01/16 04:07:26;;;;;;;0.10;0.10;;;;;;;;;;5072016;28;20106;-86
2024/01/16 04:09:52;;;;;;;0.10;0.10;;;;;;;;;;5055374;28;20036;-85
2024/01/16 04:12:18;;;;;;;0.10;0.10;;;;;;;;;;5054927;28;20040;-86
2024/01/16 04:14:44;;;;;;;0.10;0.10;;;;;;;;;;5054967;28;20127;-86
2024/01/16 04:17:10;;;;;;;0.10;0.10;;;;;;;;;;5054893;28;20494;-85
2024/01/16 04:19:36;;;;;;;0.10;0.10;;;;;;;;;;5054762;28;20045;-85
2024/01/16 04:22:04;;;;;;;0.10;0.10;;;;;;;;;;5054843;28;20047;-85
2024/01/16 04:24:30;;;;;;;0.10;0.10;;;;;;;;;;5071269;28;20044;-85
2024/01/16 04:26:56;;;;;;;0.10;0.10;;;;;;;;;;5071507;28;20040;-85
2024/01/16 04:29:22;;;;;;;0.10;0.10;;;;;;;;;;5071524;28;20127;-85
2024/01/16 04:31:48;;;;;;;0.10;0.10;;;;;;;;;;5070953;28;20600;-86
2024/01/16 04:34:14;;;;;;;0.10;0.10;;;;;;;;;;5054582;28;20055;-86
2024/01/16 04:36:40;;;;;;;0.10;0.10;;;;;;;;;;5071134;28;20045;-86
2024/01/16 04:39:08;;;;;;;0.10;0.10;;;;;;;;;;5088011;28;20051;-86
2024/01/16 04:41:34;;;;;;;0.10;0.10;;;;;;;;;;5054576;28;20484;-85
2024/01/16 04:44:00;;;;;;;0.10;0.10;;;;;;;;;;5070896;28;20037;-85
2024/01/16 04:46:26;;;;;;;0.10;0.10;;;;;;;;;;5054848;28;20040;-86
2024/01/16 04:48:52;;;;;;;0.10;0.10;;;;;;;;;;5070837;28;20064;-86
2024/01/16 04:51:18;;;;;;;0.10;0.10;;;;;;;;;;5070809;28;20067;-86
2024/01/16 04:53:44;;;;;;;0.10;0.10;;;;;;;;;;5070841;28;20063;-85
2024/01/16 04:56:10;;;;;;;0.10;0.10;;;;;;;;;;5054252;28;20049;-86
2024/01/16 04:58:36;;;;;;;0.10;0.10;;;;;;;;;;5054448;28;20044;-86
2024/01/16 05:01:02;;;;;;;0.10;0.10;;;;;;;;;;5070684;28;20131;-86
2024/01/16 05:03:28;;;;;;;0.10;0.10;;;;;;;;;;5070952;28;20044;-86
2024/01/16 05:05:55;;;;;;;0.10;0.10;;;;;;;;;;5071160;28;20036;-86
2024/01/16 05:08:22;;;;;;;0.10;0.10;;;;;;;;;;5054265;28;20036;-86
2024/01/16 05:10:48;;;;;;;0.10;0.10;;;;;;;;;;5070686;28;20044;-86
2024/01/16 05:13:14;;;;;;;0.10;0.10;;;;;;;;;;5054423;28;20048;-86
2024/01/16 05:15:42;;;;;;;0.10;0.10;;;;;;;;;;5071200;28;20396;-85
2024/01/16 05:18:09;;;;;;;0.10;0.10;;;;;;;;;;5054272;28;20078;-86
2024/01/16 05:20:35;;;;;;;0.10;0.10;;;;;;;;;;5054008;28;20051;-86
2024/01/16 05:23:01;;;;;;;0.10;0.10;;;;;;;;;;5054112;28;20062;-86
2024/01/16 05:25:27;;;;;;;0.10;0.10;;;;;;;;;;5070604;28;20115;-86
2024/01/16 05:27:53;;;;;;;0.10;0.10;;;;;;;;;;5055887;28;20391;-86
2024/01/16 05:30:19;;;;;;;0.90;0.82;;;;;;;;;;5074535;28;20040;-86
2024/01/16 05:32:45;;;;;;;0.10;0.10;;;;;;;;;;5074594;28;20384;-86
2024/01/16 05:35:11;;;;;;;0.10;0.10;;;;;;;;;;5058009;28;20063;-86
2024/01/16 05:37:37;;;;;;;0.10;0.10;;;;;;;;;;5057893;28;20470;-86
2024/01/16 05:40:03;;;;;;;0.10;0.10;;;;;;;;;;5057740;28;20044;-86
2024/01/16 05:42:30;;;;;;;0.10;0.10;;;;;;;;;;5074509;28;20099;-86
2024/01/16 05:44:56;;;;;;;0.10;0.10;;;;;;;;;;5057980;28;20040;-85
2024/01/16 05:47:24;;;;;;;0.10;0.10;;;;;;;;;;5057901;28;20036;-86
2024/01/16 05:49:50;;;;;;;0.10;0.10;;;;;;;;;;5074238;28;20367;-86
2024/01/16 05:52:16;;;;;;;0.10;0.10;;;;;;;;;;5074252;28;20043;-87
2024/01/16 05:54:42;;;;;;;0.10;0.10;;;;;;;;;;5074065;28;20068;-86
2024/01/16 05:57:08;;;;;;;0.10;0.10;;;;;;;;;;5057863;28;20254;-86
2024/01/16 05:59:34;;;;;;;0.10;0.10;;;;;;;;;;5073914;28;20123;-87
2024/01/16 06:02:00;;;;;;;0.10;0.10;;;;;;;;;;5074420;28;20123;-86
2024/01/16 06:04:26;;;;;;;0.10;0.10;;;;;;;;;;5074187;28;20059;-86
2024/01/16 06:06:52;;;;;;;0.10;0.10;;;;;;;;;;5073929;28;20559;-86
2024/01/16 06:09:18;;;;;;;0.10;0.10;;;;;;;;;;5073790;28;20076;-86
2024/01/16 06:11:44;;;;;;;0.10;0.10;;;;;;;;;;5073836;28;20048;-85
2024/01/16 06:14:12;;;;;;;0.10;0.10;;;;;;;;;;5057547;28;20460;-85
2024/01/16 06:16:38;;;;;;;0.10;0.10;;;;;;;;;;5073749;28;20170;-85
2024/01/16 06:19:04;;;;;;;0.10;0.10;;;;;;;;;;5074967;28;20094;-85
2024/01/16 06:21:30;;;;;;;0.10;0.10;;;;;;;;;;5057251;28;20044;-86
2024/01/16 06:23:56;;;;;;;0.10;0.10;;;;;;;;;;5073759;28;20044;-86
2024/01/16 06:26:22;;;;;;;0.10;0.10;;;;;;;;;;5057075;28;20045;-86
2024/01/16 06:28:48;;;;;;;0.10;0.10;;;;;;;;;;5073466;28;20139;-86
2024/01/16 06:31:14;;;;;;;0.10;0.10;;;;;;;;;;5056964;28;20491;-86
2024/01/16 06:33:40;;;;;;;0.10;0.10;;;;;;;;;;5073426;28;20048;-86
2024/01/16 06:36:07;;;;;;;0.10;0.10;;;;;;;;;;5073382;28;20036;-86
2024/01/16 06:38:33;;;;;;;0.10;0.10;;;;;;;;;;5073264;28;20079;-86
2024/01/16 06:40:59;;;;;;;0.10;0.10;;;;;;;;;;5073310;28;20049;-86
2024/01/16 06:43:25;;;;;;;0.10;0.10;;;;;;;;;;5073544;28;20037;-86
2024/01/16 06:45:51;;;;;;;0.10;0.10;;;;;;;;;;5073217;28;20047;-86
2024/01/16 06:48:17;;;;;;;0.10;0.10;;;;;;;;;;5056517;28;20052;-86
2024/01/16 06:50:43;;;;;;;0.10;0.10;;;;;;;;;;5073385;28;20051;-86
2024/01/16 06:53:09;;;;;;;0.10;0.10;;;;;;;;;;5089873;28;20208;-86
2024/01/16 06:55:35;;;;;;;0.10;0.10;;;;;;;;;;5073176;28;20040;-86
2024/01/16 06:58:01;;;;;;;0.10;0.10;;;;;;;;;;5073171;28;20486;-87
2024/01/16 07:00:27;;;;;;;0.10;0.10;;;;;;;;;;5056459;28;20201;-85
2024/01/16 07:02:54;;;;;;;0.10;0.10;;;;;;;;;;5056527;28;20048;-87
2024/01/16 07:05:23;;;;;;;0.10;0.10;;;;;;;;;;5073001;28;20093;-88
2024/01/16 07:07:49;;;;;;;0.10;0.10;;;;;;;;;;5056694;28;20534;-87
2024/01/16 07:10:18;;;;;;;0.10;0.10;;;;;;;;;;5072803;28;20032;-88
2024/01/16 07:12:45;;;;;;;0.10;0.10;;;;;;;;;;5073023;28;20178;-88
2024/01/16 07:15:11;;;;;;;0.10;0.10;;;;;;;;;;5056533;28;20040;-88
2024/01/16 07:17:37;;;;;;;0.10;0.10;;;;;;;;;;5056211;28;20052;-87
2024/01/16 07:20:03;;;;;;;0.10;0.10;;;;;;;;;;5072587;28;20063;-88
2024/01/16 07:22:29;;;;;;;0.10;0.10;;;;;;;;;;5056180;28;20040;-87
2024/01/16 07:24:56;;;;;;;0.10;0.10;;;;;;;;;;5056045;28;20040;-87
2024/01/16 07:27:22;;;;;;;0.10;0.10;;;;;;;;;;5072430;28;20052;-87
2024/01/16 07:29:48;;;;;;;0.10;0.10;;;;;;;;;;5055943;28;20036;-87
2024/01/16 07:32:14;;;;;;;0.10;0.10;;;;;;;;;;5072580;28;20036;-87
2024/01/16 07:34:40;;;;;;;0.10;0.10;;;;;;;;;;5055660;28;20044;-87
2024/01/16 07:37:06;;;;;;;0.10;0.10;;;;;;;;;;5055673;28;20373;-85
2024/01/16 07:39:31;;;;;;;0.10;0.10;;;;;;;;;;5072259;28;20044;-86
2024/01/16 07:41:57;;;;;;;0.10;0.10;;;;;;;;;;5072152;28;20037;-86
2024/01/16 07:44:26;;;;;;;0.10;0.10;;;;;;;;;;5055927;28;20041;-86
2024/01/16 07:46:52;;;;;;;0.10;0.10;;;;;;;;;;5055824;28;20040;-86
2024/01/16 07:49:18;;;;;;;0.10;0.10;;;;;;;;;;5071744;28;20064;-86
2024/01/16 07:51:44;;;;;;;0.10;0.10;;;;;;;;;;5071480;28;20131;-87
2024/01/16 07:54:10;;;;;;;0.10;0.10;;;;;;;;;;5055389;28;20076;-86
2024/01/16 07:56:37;;;;;;;0.10;0.10;;;;;;;;;;5055568;28;20040;-87
2024/01/16 07:59:03;;;;;;;0.10;0.10;;;;;;;;;;5055584;28;20484;-86
2024/01/16 08:01:29;;;;;;;0.10;0.10;;;;;;;;;;5055123;28;20051;-86
2024/01/16 08:03:56;;;;;;;0.10;0.10;;;;;;;;;;5071601;28;20037;-86
2024/01/16 08:06:22;;;;;;;0.10;0.10;;;;;;;;;;5055443;28;20484;-86
2024/01/16 08:08:49;;;;;;;0.10;0.10;;;;;;;;;;5071816;28;20044;-85
2024/01/16 08:11:15;;;;;;;0.10;0.10;;;;;;;;;;5054985;28;20043;-88
2024/01/16 08:13:41;;;;;;;0.10;0.10;;;;;;;;;;5054990;28;20111;-86
2024/01/16 08:16:07;;;;;;;0.10;0.10;;;;;;;;;;5055429;28;20502;-87
2024/01/16 08:18:34;;;;;;;0.10;0.10;;;;;;;;;;5054928;28;20041;-88
2024/01/16 08:21:00;;;;;;;0.10;0.10;;;;;;;;;;5054922;28;20047;-87
2024/01/16 08:23:26;;;;;;;0.10;0.10;;;;;;;;;;5054823;28;20033;-88
2024/01/16 08:25:52;;;;;;;0.10;0.10;;;;;;;;;;5054720;28;20120;-86
2024/01/16 08:28:18;;;;;;;0.10;0.10;;;;;;;;;;5054774;28;20179;-84
2024/01/16 08:30:44;;;;;;;0.10;0.10;;;;;;;;;;5072384;28;20087;-86
2024/01/16 08:33:11;;;;;;;0.10;0.10;;;;;;;;;;5054862;28;20150;-84
2024/01/16 08:35:37;;;;;;;0.10;0.10;;;;;;;;;;5071305;28;20041;-85
2024/01/16 08:38:03;;;;;;;0.10;0.10;;;;;;;;;;5071065;28;20036;-85
2024/01/16 08:40:29;;;;;;;0.10;0.10;;;;;;;;;;5054579;28;20325;-90
2024/01/16 08:42:55;;;;;;;0.10;0.10;;;;;;;;;;5052951;28;20072;-85
2024/01/16 08:45:21;;;;;;;0.10;0.10;;;;;;;;;;5070702;28;20119;-86
2024/01/16 08:47:48;;;;;;;0.10;0.10;;;;;;;;;;5055482;28;20081;-86
2024/01/16 08:50:14;;;;;;;0.25;0.25;;;;;;;;;;5034415;28;20511;-86
2024/01/16 08:52:40;;;;;;;0.10;0.10;;;;;;;;;;5050900;28;20051;-87
2024/01/16 08:55:08;;;;;;;0.10;0.10;;;;;;;;;;5034451;28;20072;-87
2024/01/16 08:57:34;;;;;;;0.10;0.10;;;;;;;;;;5034742;28;20045;-85
2024/01/16 09:00:02;;;;;;;0.20;0.20;;;;;;;;;;5051851;28;20047;-86
2024/01/16 09:02:28;;;;;;;0.10;0.10;;;;;;;;;;5035473;28;20045;-85
2024/01/16 09:04:55;;;;;;;0.10;0.10;;;;;;;;;;5038069;28;20032;-86
2024/01/16 09:07:21;;;;;;;0.10;0.10;;;;;;;;;;5054130;28;20044;-88
2024/01/16 09:09:47;;;;;;;0.10;0.10;;;;;;;;;;5070679;28;20037;-87
2024/01/16 09:12:13;;;;;;;0.50;0.50;;;;;;;;;;5054628;28;20127;-87
2024/01/16 09:14:41;;;;;;;0.15;0.15;;;;;;;;;;5052788;28;20033;-86
2024/01/16 09:17:07;;;;;;;0.10;0.10;;;;;;;;;;5058640;28;20040;-86
2024/01/16 09:19:33;;;;;;;0.10;0.10;;;;;;;;;;5053781;28;20609;-86
2024/01/16 09:21:59;;;;;;;0.10;0.10;;;;;;;;;;5047339;28;20124;-87
2024/01/16 09:24:26;;;;;;;0.10;0.10;;;;;;;;;;5050514;28;20040;-87
2024/01/16 09:26:52;;;;;;;0.10;0.10;;;;;;;;;;5032368;28;20424;-88
2024/01/16 09:29:18;;;;;;;0.10;0.10;;;;;;;;;;5053662;28;20134;-87
2024/01/16 09:31:44;;;;;;;0.10;0.10;;;;;;;;;;5070049;28;20040;-87
2024/01/16 09:34:10;;;;;;;0.10;0.10;;;;;;;;;;5070616;28;20147;-87
2024/01/16 09:36:36;;;;;;;0.10;0.10;;;;;;;;;;5070602;28;20055;-87
2024/01/16 09:39:03;;;;;;;0.10;0.10;;;;;;;;;;5053797;28;20484;-87
2024/01/16 09:41:32;;;;;;;0.20;0.20;;;;;;;;;;5053608;28;20080;-88
2024/01/16 09:43:58;;;;;;;0.10;0.10;;;;;;;;;;5069094;28;20098;-87
2024/01/16 09:46:24;;;;;;;0.13;0.13;;;;;;;;;;5070177;28;20395;-87
2024/01/16 09:48:50;;;;;;;0.10;0.10;;;;;;;;;;5069965;28;20056;-88
2024/01/16 09:51:17;;;;;;;0.30;0.30;;;;;;;;;;5053725;28;20049;-87
2024/01/16 09:53:43;;;;;;;0.10;0.10;;;;;;;;;;5070429;28;20376;-87
2024/01/16 09:56:10;;;;;;;0.10;0.10;;;;;;;;;;5053762;28;20131;-87
2024/01/16 09:58:37;;;;;;;0.10;0.10;;;;;;;;;;5053777;28;20048;-88
2024/01/16 10:01:03;;;;;;;0.10;0.10;;;;;;;;;;5070228;28;20043;-87
2024/01/16 10:03:29;;;;;;;0.10;0.10;;;;;;;;;;5053422;28;20399;-87
2024/01/16 10:05:55;;;;;;;0.10;0.10;;;;;;;;;;5053969;28;20119;-88
2024/01/16 10:08:21;;;;;;;0.10;0.10;;;;;;;;;;5053523;28;20051;-87
2024/01/16 10:10:47;;;;;;;0.10;0.10;;;;;;;;;;5069946;28;20178;-88
2024/01/16 10:13:14;;;;;;;0.10;0.10;;;;;;;;;;5053939;28;20040;-87
2024/01/16 10:15:40;;;;;;;0.10;0.10;;;;;;;;;;5057404;28;20518;-87
2024/01/16 10:18:06;;;;;;;0.10;0.10;;;;;;;;;;5057026;28;20036;-87
2024/01/16 10:20:33;;;;;;;0.10;0.10;;;;;;;;;;5056872;28;20522;-88
2024/01/16 10:22:59;;;;;;;0.10;0.10;;;;;;;;;;5056602;28;20052;-88
2024/01/16 10:25:25;;;;;;;0.10;0.10;;;;;;;;;;5073521;28;20044;-87
2024/01/16 10:28:03;;;;;;;0.10;0.10;;;;;;;;;;5073190;28;20047;-88
2024/01/16 10:30:29;;;;;;;0.10;0.10;;;;;;;;;;5057229;28;20128;-89
2024/01/16 10:32:57;;;;;;;0.22;0.22;;;;;;;;;;5057362;28;20055;-88
2024/01/16 10:35:23;;;;;;;0.10;0.10;;;;;;;;;;5057121;28;20093;-91
2024/01/16 10:37:53;;;;;;;0.20;0.20;;;;;;;;;;5076102;28;20044;-88
2024/01/16 10:40:25;;;;;;;0.10;0.10;;;;;;;;;;5058125;28;20392;-89
2024/01/16 10:43:00;;;;;;;0.10;0.10;;;;;;;;;;5057784;28;20083;-88
2024/01/16 10:45:26;;;;;;;0.10;0.10;;;;;;;;;;5074423;28;20059;-88
2024/01/16 10:48:02;;;;;;;0.10;0.10;;;;;;;;;;5073360;28;20052;-89
2024/01/16 10:50:28;;;;;;;0.10;0.10;;;;;;;;;;5056872;28;20052;-87
2024/01/16 10:52:55;;;;;;;0.10;0.10;;;;;;;;;;5056604;28;20436;-87
2024/01/16 10:55:22;;;;;;;0.10;0.10;;;;;;;;;;5073091;28;20483;-88
2024/01/16 10:57:49;;;;;;;0.10;0.10;;;;;;;;;;5056483;28;20055;-88
2024/01/16 11:00:15;;;;;;;0.10;0.10;;;;;;;;;;5072953;28;20059;-86
2024/01/16 11:02:47;;;;;;;0.10;0.10;;;;;;;;;;5056851;28;20089;-86
2024/01/16 11:05:17;;;;;;;0.20;0.20;;;;;;;;;;5073522;28;20043;-86
2024/01/16 11:07:43;;;;;;;0.10;0.10;;;;;;;;;;5074179;28;20036;-87
2024/01/16 11:10:09;;;;;;;0.10;0.10;;;;;;;;;;5056390;28;20044;-87
2024/01/16 11:12:35;;;;;;;0.10;0.10;;;;;;;;;;5056298;28;20123;-90
2024/01/16 11:15:01;;;;;;;0.10;0.10;;;;;;;;;;5072878;28;20053;-87
2024/01/16 11:17:28;;;;;;;0.10;0.10;;;;;;;;;;5056046;28;20556;-87
2024/01/16 11:19:55;;;;;;;0.10;0.10;;;;;;;;;;5072448;28;20086;-87
2024/01/16 11:22:21;;;;;;;0.95;0.20;;;;;;;;;;5072556;28;20084;-88
2024/01/16 11:24:55;;;;;;;0.10;0.10;;;;;;;;;;5055446;28;20079;-87
2024/01/16 11:27:22;;;;;;;0.20;0.20;;;;;;;;;;5056151;28;20037;-86
2024/01/16 11:29:51;;;;;;;0.10;0.10;;;;;;;;;;5055841;28;20044;-86
2024/01/16 11:32:34;;;;;;;0.20;0.20;;;;;;;;;;5055719;28;20043;-86
2024/01/16 11:35:00;;;;;;;0.10;0.10;;;;;;;;;;5055831;28;20484;-86
2024/01/16 11:37:31;;;;;;;0.10;0.10;;;;;;;;;;5055712;28;20094;-87
2024/01/16 11:40:16;;;;;;;0.10;0.10;;;;;;;;;;5056221;28;20127;-87
2024/01/16 11:42:42;;;;;;;0.10;0.10;;;;;;;;;;5072219;28;20051;-88
2024/01/16 11:45:09;;;;;;;0.10;0.10;;;;;;;;;;5072242;28;20048;-87
2024/01/16 11:47:35;;;;;;;0.10;0.10;;;;;;;;;;5055386;28;20036;-87
2024/01/16 11:50:11;;;;;;;0.10;0.10;;;;;;;;;;5055509;28;20078;-87
2024/01/16 11:52:43;;;;;;;0.10;0.10;;;;;;;;;;5072549;28;20056;-90
2024/01/16 11:55:28;;;;;;;0.10;0.10;;;;;;;;;;5055791;28;20094;-90
2024/01/16 11:58:14;;;;;;;0.10;0.10;;;;;;;;;;5069183;28;20040;-87
2024/01/16 12:00:42;;;;;;;0.10;0.10;;;;;;;;;;5012084;28;20084;-88
2024/01/16 12:03:08;;;;;;;0.10;0.10;;;;;;;;;;5035355;28;20634;-88
2024/01/16 12:05:34;;;;;;;0.10;0.10;;;;;;;;;;5018548;28;20091;-88
2024/01/16 12:08:03;;;;;;;0.10;0.10;;;;;;;;;;5051539;28;20045;-87
2024/01/16 12:10:29;;;;;;;0.20;0.20;;;;;;;;;;5034893;28;20092;-87
2024/01/16 12:12:59;;;;;;;0.10;0.10;;;;;;;;;;5018522;28;20037;-87
2024/01/16 12:15:25;;;;;;;0.10;0.10;;;;;;;;;;5035097;28;20033;-87
2024/01/16 12:17:57;;;;;;;0.10;0.10;;;;;;;;;;5035007;28;20443;-88
2024/01/16 12:20:23;;;;;;;0.10;0.10;;;;;;;;;;5051360;28;20037;-87
2024/01/16 12:22:53;;;;;;;0.10;0.10;;;;;;;;;;5035027;28;20124;-87
2024/01/16 12:25:21;;;;;;;0.10;0.10;;;;;;;;;;5051186;28;20044;-86
2024/01/16 12:28:13;;;;;;;0.10;0.10;;;;;;;;;;5038925;28;20143;-86
2024/01/16 12:30:39;;;;;;;0.10;0.10;;;;;;;;;;5054716;28;20102;-87
2024/01/16 12:33:06;;;;;;;0.10;0.10;;;;;;;;;;5053851;28;20037;-88
2024/01/16 12:35:34;;;;;;;0.10;0.10;;;;;;;;;;5071100;28;20044;-88
2024/01/16 12:38:05;;;;;;;0.10;0.10;;;;;;;;;;5070866;28;20051;-88
2024/01/16 12:40:31;;;;;;;0.10;0.10;;;;;;;;;;5054886;28;20453;-88
2024/01/16 12:42:57;;;;;;;0.10;0.10;;;;;;;;;;5070756;28;20131;-86
2024/01/16 12:45:23;;;;;;;0.10;0.10;;;;;;;;;;5071143;28;20040;-88
2024/01/16 12:47:53;;;;;;;0.10;0.10;;;;;;;;;;5054819;28;20132;-90
2024/01/16 12:50:26;;;;;;;0.10;0.10;;;;;;;;;;5072506;28;20055;-88
2024/01/16 12:53:25;;;;;;;0.10;0.10;;;;;;;;;;5055628;28;20044;-88
2024/01/16 12:55:58;;;;;;;0.10;0.10;;;;;;;;;;5023841;28;20052;-88
2024/01/16 12:58:26;;;;;;;0.10;0.10;;;;;;;;;;5055959;28;20458;-88
2024/01/16 13:00:52;;;;;;;0.20;0.20;;;;;;;;;;5069591;28;20040;-87
2024/01/16 13:03:18;;;;;;;0.10;0.10;;;;;;;;;;5070870;28;20047;-87
2024/01/16 13:05:45;;;;;;;0.10;0.10;;;;;;;;;;5054144;28;20041;-90
2024/01/16 13:08:17;;;;;;;0.10;0.10;;;;;;;;;;5054129;28;20127;-88
2024/01/16 13:10:43;;;;;;;;;;;;;;;;;;5054575;28;20062;-88
2024/01/16 13:13:16;;;;;;;0.10;0.10;;;;;;;;;;5054045;28;19917;-88
2024/01/16 13:15:43;;;;;;;0.10;0.10;;;;;;;;;;5054286;28;20090;-88
2024/01/16 13:18:24;;;;;;;0.20;0.20;;;;;;;;;;5054166;28;20041;-88
2024/01/16 13:20:50;;;;;;;0.17;0.17;;;;;;;;;;5054568;28;20055;-88
2024/01/16 13:23:16;;;;;;;0.10;0.10;;;;;;;;;;5054245;28;20041;-87
2024/01/16 13:25:44;;;;;;;0.10;0.10;;;;;;;;;;5070942;28;20376;-87
2024/01/16 13:28:10;;;;;;;0.10;0.10;;;;;;;;;;5054151;28;20041;-87
2024/01/16 13:30:36;;;;;;;0.20;0.20;;;;;;;;;;5070524;28;20036;-87
2024/01/16 13:33:04;;;;;;;0.25;0.25;;;;;;;;;;5070718;28;20059;-86
2024/01/16 13:35:30;;;;;;;0.10;0.10;;;;;;;;;;5054159;28;20036;-86
2024/01/16 13:37:56;;;;;;;0.10;0.10;;;;;;;;;;5070524;28;20101;-87
2024/01/16 13:40:22;;;;;;;0.20;0.20;;;;;;;;;;5053972;28;20040;-86
2024/01/16 13:42:48;;;;;;;0.20;0.20;;;;;;;;;;5070618;28;20041;-87
2024/01/16 13:45:16;;;;;;;0.10;0.10;;;;;;;;;;5053898;28;20476;-87
2024/01/16 13:47:42;;;;;;;0.10;0.10;;;;;;;;;;5053648;28;20057;-87
2024/01/16 13:50:09;;;;;;;0.25;0.25;;;;;;;;;;5074261;28;20051;-88
2024/01/16 13:52:35;;;;;;;0.10;0.10;;;;;;;;;;5058249;28;20060;-92
2024/01/16 13:55:04;;;;;;;0.20;0.20;;;;;;;;;;5058235;28;20041;-89
2024/01/16 13:57:31;;;;;;;0.10;0.10;;;;;;;;;;5074074;28;20044;-87
2024/01/16 13:59:58;;;;;;;0.10;0.10;;;;;;;;;;5057912;28;20083;-87
2024/01/16 14:02:24;;;;;;;0.13;0.13;;;;;;;;;;5073825;28;20048;-87
2024/01/16 14:04:50;;;;;;;0.20;0.20;;;;;;;;;;5057450;28;20480;-88
2024/01/16 14:07:16;;;;;;;0.10;0.10;;;;;;;;;;5057194;28;20036;-88
2024/01/16 14:09:42;;;;;;;0.10;0.10;;;;;;;;;;5057211;28;20037;-88
2024/01/16 14:12:08;;;;;;;0.10;0.10;;;;;;;;;;5057709;28;20070;-89
2024/01/16 14:14:35;;;;;;;0.10;0.10;;;;;;;;;;5057765;28;20044;-90
2024/01/16 14:17:01;;;;;;;0.10;0.10;;;;;;;;;;5057369;28;20040;-90
2024/01/16 14:19:29;;;;;;;0.10;0.10;;;;;;;;;;5057396;28;20510;-89
2024/01/16 14:21:55;;;;;;;0.20;0.20;;;;;;;;;;5073550;28;20051;-86
2024/01/16 14:24:21;;;;;;;0.10;0.10;;;;;;;;;;5057599;28;20484;-87
2024/01/16 14:26:47;;;;;;;0.10;0.10;;;;;;;;;;5073737;28;20044;-87
2024/01/16 14:29:13;;;;;;;0.10;0.10;;;;;;;;;;5056882;28;20037;-87
2024/01/16 14:31:48;;;;;;;0.10;0.10;;;;;;;;;;5058163;28;20044;-89
2024/01/16 14:34:15;;;;;;;0.10;0.10;;;;;;;;;;5058389;28;20045;-87
2024/01/16 14:36:41;;;;;;;0.10;0.10;;;;;;;;;;5055309;28;20051;-86
2024/01/16 14:39:13;;;;;;;0.10;0.10;;;;;;;;;;5056222;28;20089;-87
2024/01/16 14:41:42;;;;;;;0.10;0.10;;;;;;;;;;5073174;28;20052;-86